createdAt,value
2018-12-11T00:01:36.312Z,0.87
2018-12-11T00:04:03.926Z,0.87
2018-12-11T00:06:31.716Z,0.90
2018-12-11T00:08:59.260Z,0.87
2018-12-11T00:11:26.773Z,1.17
2018-12-11T00:13:54.335Z,1.50
2018-12-11T00:16:21.847Z,0.93
2018-12-11T00:18:49.517Z,1.17
2018-12-11T00:21:17.031Z,1.23
2018-12-11T00:23:44.563Z,0.97
2018-12-11T00:26:12.111Z,1.37
2018-12-11T00:28:39.639Z,0.70
2018-12-11T00:31:07.319Z,1.40
2018-12-11T00:33:34.856Z,0.90
2018-12-11T00:36:02.383Z,1.10
2018-12-11T00:38:29.943Z,1.10
2018-12-11T00:40:57.554Z,0.93
2018-12-11T00:43:25.463Z,1.30
2018-12-11T00:45:53.082Z,0.80
2018-12-11T00:48:20.607Z,1.10
2018-12-11T00:50:48.147Z,2.27
2018-12-11T00:53:15.664Z,1.47
2018-12-11T00:55:43.323Z,1.10
2018-12-11T00:58:10.935Z,1.33
2018-12-11T01:00:38.452Z,1.50
2018-12-11T01:03:05.991Z,1.20
2018-12-11T01:05:33.504Z,1.13
2018-12-11T01:08:01.059Z,1.10
2018-12-11T01:10:28.576Z,0.90
2018-12-11T01:12:56.115Z,1.97
2018-12-11T01:15:23.651Z,1.07
2018-12-11T01:17:51.167Z,2.10
2018-12-11T01:20:18.751Z,1.00
2018-12-11T01:22:46.263Z,1.10
2018-12-11T01:25:13.791Z,2.27
2018-12-11T01:27:41.333Z,0.90
2018-12-11T01:30:09.051Z,1.67
2018-12-11T01:32:36.655Z,0.83
2018-12-11T01:35:04.668Z,1.03
2018-12-11T01:37:32.497Z,1.30
2018-12-11T01:40:00.042Z,0.60
2018-12-11T01:42:27.569Z,1.00
2018-12-11T01:44:55.144Z,1.30
2018-12-11T01:47:22.651Z,0.97
2018-12-11T01:49:50.177Z,0.93
2018-12-11T01:52:17.723Z,0.90
2018-12-11T01:54:45.244Z,1.37
2018-12-11T01:57:13.028Z,0.70
2018-12-11T01:59:40.550Z,1.60
2018-12-11T02:02:08.060Z,0.77
2018-12-11T02:04:35.607Z,1.10
2018-12-11T02:07:03.131Z,1.50
2018-12-11T02:09:30.832Z,0.80
2018-12-11T02:11:58.352Z,0.90
2018-12-11T02:14:25.871Z,0.80
2018-12-11T02:16:53.424Z,1.10
2018-12-11T02:19:20.935Z,0.90
2018-12-11T02:21:48.495Z,1.20
2018-12-11T02:24:16.016Z,0.97
2018-12-11T02:26:43.527Z,1.10
2018-12-11T02:29:11.067Z,1.17
2018-12-11T02:31:38.575Z,1.47
2018-12-11T02:34:06.543Z,1.70
2018-12-11T02:36:34.065Z,1.40
2018-12-11T02:39:01.591Z,0.80
2018-12-11T02:41:29.133Z,1.17
2018-12-11T02:43:56.655Z,1.10
2018-12-11T02:46:24.211Z,1.23
2018-12-11T02:48:52.000Z,1.53
2018-12-11T02:51:19.514Z,1.10
2018-12-11T02:53:47.055Z,2.80
2018-12-11T02:56:14.570Z,1.00
2018-12-11T02:58:42.312Z,1.57
2018-12-11T03:01:09.821Z,2.50
2018-12-11T03:03:37.352Z,0.90
2018-12-11T03:06:04.992Z,1.13
2018-12-11T03:08:32.506Z,1.70
2018-12-11T03:11:00.043Z,1.00
2018-12-11T03:13:27.553Z,1.40
2018-12-11T03:15:55.095Z,0.97
2018-12-11T03:18:22.602Z,1.87
2018-12-11T03:20:50.111Z,1.27
2018-12-11T03:23:17.644Z,1.17
2018-12-11T03:25:45.151Z,1.10
2018-12-11T03:28:12.688Z,0.90
2018-12-11T03:30:40.201Z,0.90
2018-12-11T03:33:07.967Z,1.27
2018-12-11T03:35:35.584Z,1.20
2018-12-11T03:38:03.087Z,1.40
2018-12-11T03:40:30.627Z,0.80
2018-12-11T03:42:58.137Z,1.67
2018-12-11T03:45:25.746Z,1.63
2018-12-11T03:47:53.288Z,1.30
2018-12-11T03:50:20.866Z,1.13
2018-12-11T03:52:48.376Z,1.40
2018-12-11T03:55:15.889Z,1.73
2018-12-11T03:57:43.432Z,1.30
2018-12-11T04:00:10.955Z,1.70
2018-12-11T04:02:38.500Z,1.57
2018-12-11T04:05:06.444Z,2.23
2018-12-11T04:07:34.229Z,1.23
2018-12-11T04:10:01.745Z,1.20
2018-12-11T04:12:29.267Z,1.00
2018-12-11T04:14:56.814Z,1.50
2018-12-11T04:17:24.321Z,1.30
2018-12-11T04:19:51.876Z,0.83
2018-12-11T04:22:19.391Z,1.23
2018-12-11T04:24:46.904Z,1.00
2018-12-11T04:27:15.443Z,1.33
2018-12-11T04:29:43.094Z,1.20
2018-12-11T04:32:10.804Z,1.27
2018-12-11T04:34:38.316Z,1.07
2018-12-11T04:37:05.822Z,1.10
2018-12-11T04:39:34.034Z,0.93
2018-12-11T04:42:01.821Z,1.57
2018-12-11T04:44:29.364Z,1.93
2018-12-11T04:46:56.884Z,1.50
2018-12-11T04:49:24.403Z,1.83
2018-12-11T04:51:51.950Z,2.07
2018-12-11T04:54:19.463Z,1.37
2018-12-11T04:56:47.135Z,1.37
2018-12-11T04:59:14.652Z,1.83
2018-12-11T05:01:42.390Z,1.40
2018-12-11T05:04:09.956Z,1.40
2018-12-11T05:06:37.465Z,1.03
2018-12-11T05:09:06.471Z,1.30
2018-12-11T05:11:33.991Z,1.60
2018-12-11T05:14:01.503Z,1.40
2018-12-11T05:16:29.045Z,0.90
2018-12-11T05:18:56.560Z,1.00
2018-12-11T05:21:24.268Z,2.10
2018-12-11T05:23:51.783Z,1.70
2018-12-11T05:26:19.319Z,1.40
2018-12-11T05:28:46.878Z,1.63
2018-12-11T05:31:14.399Z,1.30
2018-12-11T05:33:41.948Z,1.40
2018-12-11T05:36:09.471Z,1.30
2018-12-11T05:38:36.985Z,1.20
2018-12-11T05:41:04.527Z,1.40
2018-12-11T05:43:32.035Z,1.00
2018-12-11T05:45:59.612Z,1.50
2018-12-11T05:48:27.135Z,1.20
2018-12-11T05:50:54.648Z,1.00
2018-12-11T05:53:22.189Z,1.33
2018-12-11T05:55:49.699Z,1.17
2018-12-11T05:58:17.356Z,0.87
2018-12-11T06:00:44.903Z,0.97
2018-12-11T06:03:12.424Z,1.33
2018-12-11T06:05:39.969Z,1.53
2018-12-11T06:08:07.512Z,1.10
2018-12-11T06:10:35.075Z,1.73
2018-12-11T06:13:02.592Z,1.27
2018-12-11T06:15:30.104Z,0.80
2018-12-11T06:17:57.643Z,1.27
2018-12-11T06:20:25.160Z,1.00
2018-12-11T06:22:52.847Z,1.17
2018-12-11T06:25:20.364Z,1.13
2018-12-11T06:27:47.883Z,0.80
2018-12-11T06:30:15.425Z,1.47
2018-12-11T06:32:42.939Z,1.07
2018-12-11T06:35:10.652Z,1.00
2018-12-11T06:37:38.175Z,1.00
2018-12-11T06:40:06.735Z,1.00
2018-12-11T06:42:34.284Z,1.17
2018-12-11T06:45:01.856Z,1.33
2018-12-11T06:47:29.697Z,1.20
2018-12-11T06:49:57.422Z,1.27
2018-12-11T06:52:24.932Z,1.43
2018-12-11T06:54:52.483Z,1.57
2018-12-11T06:57:19.996Z,1.40
2018-12-11T06:59:47.576Z,1.23
2018-12-11T07:02:15.226Z,1.10
2018-12-11T07:04:42.741Z,2.03
2018-12-11T07:07:11.055Z,1.87
2018-12-11T07:09:38.567Z,1.60
2018-12-11T07:12:06.296Z,1.30
2018-12-11T07:14:33.804Z,1.00
2018-12-11T07:17:01.344Z,1.37
2018-12-11T07:19:28.911Z,1.90
2018-12-11T07:21:56.444Z,1.50
2018-12-11T07:24:24.091Z,1.67
2018-12-11T07:26:51.619Z,1.30
2018-12-11T07:29:19.131Z,2.30
2018-12-11T07:31:46.673Z,1.33
2018-12-11T07:34:14.211Z,1.30
2018-12-11T07:36:41.783Z,1.20
2018-12-11T07:39:09.303Z,1.70
2018-12-11T07:41:36.819Z,2.17
2018-12-11T07:44:04.455Z,2.17
2018-12-11T07:46:31.967Z,1.43
2018-12-11T07:48:59.699Z,1.50
2018-12-11T07:51:27.211Z,1.97
2018-12-11T07:53:54.720Z,1.20
2018-12-11T07:56:22.270Z,1.80
2018-12-11T07:58:49.787Z,1.37
2018-12-11T08:01:17.483Z,1.60
2018-12-11T08:03:44.987Z,1.33
2018-12-11T08:06:12.502Z,1.80
2018-12-11T08:08:40.079Z,1.57
2018-12-11T08:11:07.695Z,1.60
2018-12-11T08:13:35.251Z,2.43
2018-12-11T08:16:02.787Z,2.33
2018-12-11T08:18:30.331Z,1.73
2018-12-11T08:20:57.899Z,1.87
2018-12-11T08:23:25.527Z,1.40
2018-12-11T08:25:53.079Z,1.50
2018-12-11T08:28:20.599Z,2.20
2018-12-11T08:30:48.409Z,1.40
2018-12-11T08:33:15.923Z,1.70
2018-12-11T08:35:43.444Z,2.00
2018-12-11T08:38:10.988Z,1.30
2018-12-11T08:40:38.503Z,1.43
2018-12-11T08:43:06.215Z,1.33
2018-12-11T08:45:33.731Z,1.53
2018-12-11T08:48:01.256Z,2.27
2018-12-11T08:50:29.512Z,2.10
2018-12-11T08:52:57.013Z,1.37
2018-12-11T08:55:24.823Z,1.20
2018-12-11T08:57:52.336Z,2.00
2018-12-11T09:00:19.847Z,1.23
2018-12-11T09:02:47.404Z,1.73
2018-12-11T09:05:14.915Z,1.33
2018-12-11T09:07:42.731Z,1.57
2018-12-11T09:10:10.248Z,1.83
2018-12-11T09:12:37.779Z,1.70
2018-12-11T09:15:05.841Z,2.13
2018-12-11T09:17:33.379Z,1.97
2018-12-11T09:20:00.925Z,1.50
2018-12-11T09:22:28.435Z,1.10
2018-12-11T09:24:55.947Z,1.80
2018-12-11T09:27:23.513Z,1.87
2018-12-11T09:29:51.023Z,1.43
2018-12-11T09:32:18.587Z,1.97
2018-12-11T09:34:46.096Z,2.17
2018-12-11T09:37:13.608Z,2.43
2018-12-11T09:39:41.137Z,1.63
2018-12-11T09:42:08.696Z,1.47
2018-12-11T09:44:36.243Z,1.30
2018-12-11T09:47:03.875Z,0.90
2018-12-11T09:49:31.399Z,1.30
2018-12-11T09:51:58.945Z,1.23
2018-12-11T09:54:26.463Z,1.37
2018-12-11T09:56:54.010Z,1.17
2018-12-11T09:59:23.502Z,1.00
2018-12-11T10:01:51.278Z,1.40
2018-12-11T10:04:18.814Z,0.67
2018-12-11T10:06:46.323Z,1.00
2018-12-11T10:09:13.871Z,1.30
2018-12-11T10:11:41.391Z,0.97
2018-12-11T10:14:09.590Z,0.90
2018-12-11T10:16:37.096Z,1.00
2018-12-11T10:19:06.402Z,0.87
2018-12-11T10:21:33.951Z,0.93
2018-12-11T10:24:01.477Z,0.60
2018-12-11T10:26:29.154Z,0.60
2018-12-11T10:28:56.680Z,1.03
2018-12-11T10:31:24.191Z,0.80
2018-12-11T10:33:51.727Z,0.50
2018-12-11T10:36:19.252Z,0.60
2018-12-11T10:38:46.787Z,1.00
2018-12-11T10:41:14.299Z,0.60
2018-12-11T10:43:41.803Z,0.70
2018-12-11T10:46:09.336Z,1.07
2018-12-11T10:48:36.838Z,1.30
2018-12-11T10:51:04.483Z,1.13
2018-12-11T10:53:31.992Z,0.87
2018-12-11T10:55:59.507Z,0.60
2018-12-11T10:58:27.036Z,0.70
2018-12-11T11:01:00.080Z,0.80
2018-12-11T11:03:27.651Z,0.80
2018-12-11T11:05:55.181Z,0.73
2018-12-11T11:08:22.691Z,0.70
2018-12-11T11:10:50.247Z,0.80
2018-12-11T11:13:17.910Z,0.83
2018-12-11T11:15:45.556Z,0.70
2018-12-11T11:18:13.080Z,0.73
2018-12-11T11:20:40.583Z,0.83
2018-12-11T11:23:08.145Z,1.30
2018-12-11T11:25:35.647Z,0.90
2018-12-11T11:28:03.347Z,1.00
2018-12-11T11:30:30.856Z,0.97
2018-12-11T11:32:58.373Z,1.70
2018-12-11T11:35:25.932Z,1.27
2018-12-11T11:37:53.432Z,1.20
2018-12-11T11:40:21.147Z,1.10
2018-12-11T11:42:48.687Z,0.80
2018-12-11T11:45:16.256Z,1.70
2018-12-11T11:47:43.814Z,1.50
2018-12-11T11:50:13.312Z,1.00
2018-12-11T11:52:40.857Z,1.27
2018-12-11T11:55:08.360Z,1.20
2018-12-11T11:57:35.864Z,1.40
2018-12-11T12:00:06.312Z,1.00
2018-12-11T12:02:33.826Z,1.23
2018-12-11T12:05:01.360Z,1.40
2018-12-11T12:07:28.884Z,2.50
2018-12-11T12:09:56.383Z,0.80
2018-12-11T12:12:23.935Z,0.90
2018-12-11T12:14:51.435Z,1.03
2018-12-11T12:17:19.256Z,1.50
2018-12-11T12:19:46.763Z,0.80
2018-12-11T12:22:14.271Z,3.13
2018-12-11T12:24:41.811Z,1.23
2018-12-11T12:27:09.317Z,1.27
2018-12-11T12:29:36.947Z,1.30
2018-12-11T12:32:04.447Z,0.97
2018-12-11T12:34:31.949Z,1.13
2018-12-11T12:36:59.487Z,0.80
2018-12-11T12:39:26.985Z,0.83
2018-12-11T12:41:54.531Z,1.00
2018-12-11T12:44:22.041Z,0.80
2018-12-11T12:46:49.939Z,1.27
2018-12-11T12:49:17.740Z,1.03
2018-12-11T12:51:45.245Z,1.30
2018-12-11T12:54:12.784Z,1.30
2018-12-11T12:56:40.295Z,1.30
2018-12-11T12:59:07.801Z,0.93
2018-12-11T13:01:35.331Z,0.80
2018-12-11T13:04:02.831Z,1.40
2018-12-11T13:06:30.699Z,1.37
2018-12-11T13:08:58.495Z,0.77
2018-12-11T13:11:26.020Z,0.80
2018-12-11T13:13:53.554Z,1.37
2018-12-11T13:16:21.071Z,1.00
2018-12-11T13:18:48.751Z,1.30
2018-12-11T13:21:16.251Z,0.77
2018-12-11T13:23:43.752Z,0.50
2018-12-11T13:26:11.312Z,0.57
2018-12-11T13:28:38.817Z,0.50
2018-12-11T13:31:06.521Z,0.57
2018-12-11T13:33:34.028Z,0.73
2018-12-11T13:36:01.534Z,0.40
2018-12-11T13:38:29.211Z,2.70
2018-12-11T13:40:56.919Z,0.60
2018-12-11T13:43:24.563Z,0.73
2018-12-11T13:45:52.083Z,0.43
2018-12-11T13:48:23.448Z,0.47
2018-12-11T13:50:49.378Z,0.40
2018-12-11T13:53:16.887Z,0.83
2018-12-11T13:55:44.726Z,0.53
2018-12-11T13:58:12.235Z,0.43
2018-12-11T14:00:39.779Z,0.97
2018-12-11T14:03:08.237Z,0.40
2018-12-11T14:05:35.752Z,0.70
2018-12-11T14:08:03.461Z,0.40
2018-12-11T14:10:30.971Z,0.70
2018-12-11T14:12:58.471Z,0.63
2018-12-11T14:15:26.007Z,0.53
2018-12-11T14:17:53.519Z,0.80
2018-12-11T14:20:21.337Z,0.90
2018-12-11T14:22:48.855Z,0.60
2018-12-11T14:25:16.363Z,0.70
2018-12-11T14:27:43.908Z,0.70
2018-12-11T14:30:11.520Z,0.50
2018-12-11T14:32:39.059Z,0.70
2018-12-11T14:35:06.776Z,0.70
2018-12-11T14:37:34.288Z,0.60
2018-12-11T14:40:01.826Z,1.23
2018-12-11T14:42:29.464Z,0.83
2018-12-11T14:44:57.135Z,1.03
2018-12-11T14:47:24.649Z,0.83
2018-12-11T14:49:52.170Z,1.13
2018-12-11T14:52:19.715Z,1.37
2018-12-11T14:54:47.223Z,0.73
2018-12-11T14:57:14.861Z,1.17
2018-12-11T14:59:42.364Z,0.70
2018-12-11T15:02:09.876Z,0.90
2018-12-11T15:04:37.416Z,0.77
2018-12-11T15:07:04.931Z,0.53
2018-12-11T15:09:38.276Z,1.33
2018-12-11T15:12:05.783Z,0.93
2018-12-11T15:14:33.285Z,0.83
2018-12-11T15:17:00.828Z,0.70
2018-12-11T15:19:28.363Z,1.20
2018-12-11T15:21:55.911Z,0.60
2018-12-11T15:24:23.420Z,0.60
2018-12-11T15:26:50.939Z,0.87
2018-12-11T15:29:18.495Z,0.80
2018-12-11T15:31:46.008Z,0.60
2018-12-11T15:34:13.579Z,1.00
2018-12-11T15:36:41.116Z,0.80
2018-12-11T15:39:08.642Z,1.73
2018-12-11T15:41:36.229Z,1.10
2018-12-11T15:44:03.839Z,1.00
2018-12-11T15:46:31.695Z,1.80
2018-12-11T15:48:59.199Z,1.30
2018-12-11T15:51:27.715Z,1.00
2018-12-11T15:53:55.280Z,0.93
2018-12-11T15:56:22.792Z,0.97
2018-12-11T15:58:50.343Z,1.00
2018-12-11T16:01:17.868Z,1.70
2018-12-11T16:03:45.416Z,0.90
2018-12-11T16:06:12.969Z,0.90
2018-12-11T16:08:40.483Z,0.93
2018-12-11T16:11:08.019Z,1.07
2018-12-11T16:13:35.535Z,0.90
2018-12-11T16:16:03.210Z,1.03
2018-12-11T16:18:30.723Z,1.10
2018-12-11T16:20:58.257Z,0.83
2018-12-11T16:23:25.807Z,0.97
2018-12-11T16:25:53.344Z,1.20
2018-12-11T16:28:20.891Z,1.27
2018-12-11T16:30:48.403Z,2.83
2018-12-11T16:33:15.915Z,1.43
2018-12-11T16:35:43.460Z,1.20
2018-12-11T16:38:11.013Z,1.10
2018-12-11T16:40:38.731Z,1.50
2018-12-11T16:43:06.243Z,0.70
2018-12-11T16:45:33.756Z,1.17
2018-12-11T16:48:01.300Z,1.33
2018-12-11T16:50:28.820Z,1.10
2018-12-11T16:52:56.413Z,1.00
2018-12-11T16:55:23.927Z,0.97
2018-12-11T16:57:51.449Z,1.97
2018-12-11T17:00:19.095Z,1.30
2018-12-11T17:02:46.611Z,2.00
2018-12-11T17:05:14.231Z,2.10
2018-12-11T17:07:41.748Z,2.40
2018-12-11T17:10:09.264Z,2.37
2018-12-11T17:12:37.207Z,2.47
2018-12-11T17:15:06.732Z,3.10
2018-12-11T17:17:34.383Z,2.37
2018-12-11T17:20:01.907Z,2.53
2018-12-11T17:22:29.424Z,1.90
2018-12-11T17:24:56.971Z,1.27
2018-12-11T17:27:24.483Z,1.97
2018-12-11T17:29:52.343Z,2.20
2018-12-11T17:32:19.854Z,2.50
2018-12-11T17:34:47.367Z,2.40
2018-12-11T17:37:14.958Z,2.77
2018-12-11T17:39:42.567Z,2.67
2018-12-11T17:42:10.239Z,2.80
2018-12-11T17:44:37.776Z,2.83
2018-12-11T17:47:05.310Z,2.10
2018-12-11T17:49:32.867Z,2.30
2018-12-11T17:52:00.375Z,1.63
2018-12-11T17:54:28.240Z,2.07
2018-12-11T17:56:55.762Z,1.70
2018-12-11T17:59:23.288Z,2.90
2018-12-11T18:01:51.830Z,2.57
2018-12-11T18:04:19.343Z,3.23
2018-12-11T18:06:47.063Z,2.67
2018-12-11T18:09:14.571Z,2.67
2018-12-11T18:11:42.083Z,3.17
2018-12-11T18:14:09.635Z,2.90
2018-12-11T18:16:37.172Z,2.50
2018-12-11T18:19:04.725Z,1.77
2018-12-11T18:21:32.243Z,2.40
2018-12-11T18:23:59.761Z,2.40
2018-12-11T18:26:27.303Z,5.37
2018-12-11T18:28:54.821Z,3.83
2018-12-11T18:31:22.396Z,3.40
2018-12-11T18:33:49.908Z,3.43
2018-12-11T18:36:17.528Z,2.77
2018-12-11T18:38:45.068Z,2.80
2018-12-11T18:41:12.612Z,2.53
2018-12-11T18:43:40.459Z,3.33
2018-12-11T18:46:08.608Z,8.13
2018-12-11T18:48:36.175Z,3.10
2018-12-11T18:51:03.822Z,1.87
2018-12-11T18:53:31.328Z,2.40
2018-12-11T18:55:58.912Z,2.50
2018-12-11T18:58:26.423Z,2.50
2018-12-11T19:00:53.948Z,2.63
2018-12-11T19:03:21.489Z,2.03
2018-12-11T19:05:48.999Z,2.77
2018-12-11T19:08:16.798Z,2.57
2018-12-11T19:10:44.311Z,2.70
2018-12-11T19:13:11.819Z,2.90
2018-12-11T19:15:39.590Z,2.97
2018-12-11T19:18:07.214Z,3.00
2018-12-11T19:20:34.768Z,2.33
2018-12-11T19:23:06.271Z,2.73
2018-12-11T19:25:33.836Z,4.80
2018-12-11T19:28:01.351Z,4.00
2018-12-11T19:30:28.867Z,4.03
2018-12-11T19:32:56.544Z,3.80
2018-12-11T19:35:24.059Z,3.83
2018-12-11T19:37:51.600Z,1.97
2018-12-11T19:40:19.136Z,3.10
2018-12-11T19:42:46.763Z,2.77
2018-12-11T19:45:14.316Z,2.77
2018-12-11T19:47:41.833Z,8.40
2018-12-11T19:50:09.392Z,2.60
2018-12-11T19:52:39.879Z,3.30
2018-12-11T19:55:06.495Z,3.20
2018-12-11T19:57:34.069Z,3.43
2018-12-11T20:00:01.587Z,3.00
2018-12-11T20:02:29.131Z,2.33
2018-12-11T20:04:56.730Z,3.27
2018-12-11T20:07:24.851Z,3.00
2018-12-11T20:09:58.218Z,2.77
2018-12-11T20:12:26.906Z,2.70
2018-12-11T20:14:54.444Z,2.23
2018-12-11T20:17:22.501Z,2.50
2018-12-11T20:19:50.108Z,3.33
2018-12-11T20:22:17.763Z,2.60
2018-12-11T20:24:45.354Z,2.83
2018-12-11T20:27:12.885Z,2.67
2018-12-11T20:29:41.568Z,2.50
2018-12-11T20:32:10.068Z,3.00
2018-12-11T20:34:37.736Z,2.50
2018-12-11T20:37:05.319Z,1.80
2018-12-11T20:39:32.933Z,2.53
2018-12-11T20:42:00.614Z,2.47
2018-12-11T20:44:28.263Z,2.57
2018-12-11T20:46:56.029Z,1.80
2018-12-11T20:49:24.094Z,2.93
2018-12-11T20:51:51.625Z,2.63
2018-12-11T20:54:19.165Z,2.80
2018-12-11T20:56:46.703Z,2.43
2018-12-11T20:59:14.255Z,2.80
2018-12-11T21:01:41.772Z,1.83
2018-12-11T21:04:09.340Z,2.90
2018-12-11T21:06:36.901Z,2.50
2018-12-11T21:09:07.726Z,2.97
2018-12-11T21:11:35.294Z,2.33
2018-12-11T21:14:02.808Z,2.87
2018-12-11T21:16:30.348Z,2.77
2018-12-11T21:18:58.267Z,3.07
2018-12-11T21:21:26.860Z,4.03
2018-12-11T21:23:54.499Z,3.00
2018-12-11T21:26:22.104Z,4.00
2018-12-11T21:28:49.656Z,3.90
2018-12-11T21:31:17.204Z,3.23
2018-12-11T21:33:44.748Z,2.87
2018-12-11T21:36:12.276Z,3.27
2018-12-11T21:38:39.879Z,2.93
2018-12-11T21:41:07.464Z,2.73
2018-12-11T21:43:35.612Z,3.10
2018-12-11T21:46:03.164Z,3.27
2018-12-11T21:48:30.671Z,3.93
2018-12-11T21:50:58.212Z,2.53
2018-12-11T21:53:25.744Z,2.83
2018-12-11T21:55:53.519Z,3.30
2018-12-11T21:58:21.075Z,3.50
2018-12-11T22:00:48.634Z,3.40
2018-12-11T22:03:16.479Z,3.60
2018-12-11T22:05:44.091Z,2.90
2018-12-11T22:08:11.734Z,3.37
2018-12-11T22:10:39.277Z,2.63
2018-12-11T22:13:06.789Z,2.13
2018-12-11T22:15:34.342Z,3.50
2018-12-11T22:18:01.841Z,3.30
2018-12-11T22:20:29.383Z,3.07
2018-12-11T22:22:56.879Z,3.10
2018-12-11T22:25:24.375Z,2.97
2018-12-11T22:27:51.907Z,2.43
2018-12-11T22:30:19.407Z,3.17
2018-12-11T22:32:47.128Z,2.90
2018-12-11T22:35:14.636Z,3.40
2018-12-11T22:37:42.169Z,3.93
2018-12-11T22:40:09.701Z,3.73
2018-12-11T22:42:37.311Z,4.20
2018-12-11T22:45:05.227Z,4.53
2018-12-11T22:47:32.741Z,3.97
2018-12-11T22:50:00.268Z,3.60
2018-12-11T22:52:27.811Z,4.20
2018-12-11T22:54:55.321Z,4.17
2018-12-11T22:57:22.892Z,4.30
2018-12-11T22:59:50.428Z,3.70
2018-12-11T23:02:17.927Z,4.17
2018-12-11T23:04:45.469Z,4.00
2018-12-11T23:07:12.971Z,3.33
2018-12-11T23:09:42.644Z,3.47
2018-12-11T23:12:10.164Z,3.40
2018-12-11T23:14:37.672Z,3.43
2018-12-11T23:17:05.207Z,4.07
2018-12-11T23:19:32.716Z,4.20
2018-12-11T23:22:00.271Z,3.73
2018-12-11T23:24:27.799Z,3.27
2018-12-11T23:26:55.311Z,3.47
2018-12-11T23:29:22.843Z,4.20
2018-12-11T23:31:50.343Z,5.53
2018-12-11T23:34:17.903Z,4.10
2018-12-11T23:36:45.435Z,3.50
2018-12-11T23:39:12.972Z,5.17
2018-12-11T23:41:40.523Z,3.60
2018-12-11T23:44:08.043Z,3.70
2018-12-11T23:46:35.759Z,3.27
2018-12-11T23:49:03.367Z,3.07
2018-12-11T23:51:30.897Z,4.17
2018-12-11T23:53:58.456Z,3.00
2018-12-11T23:56:25.975Z,3.57
2018-12-11T23:58:53.655Z,3.30
